createdAt,value
2018-04-20T00:02:07.138Z,63.70
2018-04-20T00:04:35.421Z,63.50
2018-04-20T00:07:03.682Z,64.30
2018-04-20T00:09:31.190Z,64.20
2018-04-20T00:11:58.696Z,65.80
2018-04-20T00:14:26.184Z,65.00
2018-04-20T00:16:53.707Z,65.20
2018-04-20T00:19:21.205Z,65.20
2018-04-20T00:21:49.712Z,65.70
2018-04-20T00:24:17.216Z,65.90
2018-04-20T00:26:45.473Z,65.90
2018-04-20T00:29:13.032Z,65.90
2018-04-20T00:31:40.675Z,65.70
2018-04-20T00:34:08.167Z,66.10
2018-04-20T00:36:36.414Z,66.20
2018-04-20T00:39:03.961Z,66.20
2018-04-20T00:41:31.455Z,66.10
2018-04-20T00:43:59.698Z,68.10
2018-04-20T00:46:27.210Z,68.10
2018-04-20T00:48:54.716Z,68.30
2018-04-20T00:51:22.244Z,69.30
2018-04-20T00:54:01.690Z,69.90
2018-04-20T00:56:29.177Z,69.30
2018-04-20T00:58:56.692Z,69.40
2018-04-20T01:01:24.177Z,70.10
2018-04-20T01:03:51.659Z,70.50
2018-04-20T01:06:19.948Z,71.40
2018-04-20T01:08:48.289Z,72.10
2018-04-20T01:11:15.785Z,72.00
2018-04-20T01:13:44.030Z,72.00
2018-04-20T01:16:11.584Z,71.80
2018-04-20T01:18:39.068Z,72.70
2018-04-20T01:21:07.322Z,72.60
2018-04-20T01:23:34.839Z,72.60
2018-04-20T01:26:02.317Z,72.60
2018-04-20T01:28:29.798Z,73.10
2018-04-20T01:30:57.300Z,74.60
2018-04-20T01:33:24.829Z,74.40
2018-04-20T01:35:53.255Z,74.80
2018-04-20T01:38:20.739Z,74.60
2018-04-20T01:40:48.254Z,74.90
2018-04-20T01:43:15.758Z,74.40
2018-04-20T01:45:43.267Z,74.50
2018-04-20T01:48:10.857Z,74.80
2018-04-20T01:50:38.371Z,74.90
2018-04-20T01:53:06.633Z,76.00
2018-04-20T01:55:34.911Z,75.90
2018-04-20T01:58:03.222Z,76.70
2018-04-20T02:00:30.704Z,75.80
2018-04-20T02:02:58.308Z,75.60
2018-04-20T02:05:26.649Z,76.10
2018-04-20T02:07:54.250Z,76.00
2018-04-20T02:10:22.499Z,75.80
2018-04-20T02:12:50.017Z,75.70
2018-04-20T02:15:17.497Z,76.20
2018-04-20T02:17:44.981Z,77.20
2018-04-20T02:20:13.255Z,78.50
2018-04-20T02:22:41.557Z,78.00
2018-04-20T02:25:09.040Z,78.00
2018-04-20T02:27:36.629Z,78.00
2018-04-20T02:30:04.867Z,79.50
2018-04-20T02:32:32.376Z,79.40
2018-04-20T02:34:59.877Z,79.60
2018-04-20T02:37:27.362Z,79.20
2018-04-20T02:39:54.872Z,78.70
2018-04-20T02:42:23.121Z,79.30
2018-04-20T02:44:50.604Z,79.30
2018-04-20T02:47:18.886Z,79.90
2018-04-20T02:49:46.377Z,79.70
2018-04-20T02:52:13.874Z,79.70
2018-04-20T02:54:41.417Z,80.20
2018-04-20T02:57:08.904Z,80.20
2018-04-20T02:59:37.155Z,80.10
2018-04-20T03:02:04.658Z,80.10
2018-04-20T03:04:32.175Z,80.00
2018-04-20T03:06:59.656Z,81.00
2018-04-20T03:09:27.182Z,81.20
2018-04-20T03:11:54.662Z,81.50
2018-04-20T03:14:22.909Z,83.00
2018-04-20T03:16:50.433Z,82.80
2018-04-20T03:19:17.930Z,82.70
2018-04-20T03:21:45.412Z,82.90
2018-04-20T03:24:13.689Z,83.40
2018-04-20T03:26:41.944Z,84.10
2018-04-20T03:29:09.428Z,84.00
2018-04-20T03:31:37.706Z,84.00
2018-04-20T03:34:05.448Z,84.00
2018-04-20T03:36:33.713Z,84.40
2018-04-20T03:39:01.224Z,84.30
2018-04-20T03:41:28.795Z,84.40
2018-04-20T03:43:56.280Z,85.00
2018-04-20T03:46:23.800Z,83.70
2018-04-20T03:48:51.337Z,84.00
2018-04-20T03:51:18.827Z,83.40
2018-04-20T03:53:46.315Z,84.20
2018-04-20T03:56:13.845Z,86.30
2018-04-20T03:58:41.318Z,85.10
2018-04-20T04:01:08.817Z,85.00
2018-04-20T04:03:37.117Z,85.40
2018-04-20T04:06:04.677Z,85.40
2018-04-20T04:08:32.167Z,86.30
2018-04-20T04:11:00.461Z,85.10
2018-04-20T04:13:27.928Z,85.10
2018-04-20T04:15:56.182Z,86.10
2018-04-20T04:18:35.403Z,85.80
2018-04-20T04:21:14.731Z,85.70
2018-04-20T04:23:54.047Z,87.10
2018-04-20T04:26:33.315Z,88.10
2018-04-20T04:29:00.813Z,88.60
2018-04-20T04:31:28.355Z,89.20
2018-04-20T04:33:55.914Z,89.40
2018-04-20T04:36:23.439Z,89.20
2018-04-20T04:38:51.008Z,89.10
2018-04-20T04:41:18.489Z,89.40
2018-04-20T04:43:46.739Z,89.00
2018-04-20T04:46:14.268Z,88.90
2018-04-20T04:48:41.755Z,89.40
2018-04-20T04:51:09.235Z,88.80
2018-04-20T04:53:37.576Z,90.00
2018-04-20T04:56:05.077Z,90.00
2018-04-20T04:58:33.334Z,90.00
2018-04-20T05:01:01.680Z,90.20
2018-04-20T05:03:29.170Z,90.20
2018-04-20T05:05:57.491Z,90.40
2018-04-20T05:08:24.971Z,90.40
2018-04-20T05:10:52.459Z,90.60
2018-04-20T05:13:20.047Z,91.00
2018-04-20T05:15:47.545Z,90.60
2018-04-20T05:18:15.037Z,90.50
2018-04-20T05:20:43.315Z,91.60
2018-04-20T05:23:11.560Z,91.60
2018-04-20T05:25:39.073Z,91.60
2018-04-20T05:28:06.550Z,91.50
2018-04-20T05:30:34.054Z,91.40
2018-04-20T05:33:01.566Z,91.30
2018-04-20T05:35:29.053Z,91.50
2018-04-20T05:37:56.559Z,91.80
2018-04-20T05:40:27.132Z,91.30
2018-04-20T05:42:54.632Z,91.70
2018-04-20T05:45:22.140Z,91.50
2018-04-20T05:47:49.671Z,92.00
2018-04-20T05:50:17.167Z,91.80
2018-04-20T05:52:44.654Z,91.90
2018-04-20T05:55:12.993Z,91.40
2018-04-20T05:57:40.491Z,91.40
2018-04-20T06:00:07.993Z,91.10
2018-04-20T06:02:35.502Z,90.80
2018-04-20T06:05:03.768Z,90.20
2018-04-20T06:07:32.024Z,90.30
2018-04-20T06:09:59.528Z,90.30
2018-04-20T06:12:27.025Z,90.40
2018-04-20T06:14:54.571Z,90.30
2018-04-20T06:17:22.038Z,90.30
2018-04-20T06:19:49.559Z,90.10
2018-04-20T06:22:17.102Z,89.50
2018-04-20T06:24:45.375Z,88.90
2018-04-20T06:27:13.645Z,88.00
2018-04-20T06:29:41.892Z,88.60
2018-04-20T06:32:09.365Z,88.50
2018-04-20T06:34:36.868Z,88.80
2018-04-20T06:37:04.359Z,88.90
2018-04-20T06:39:31.854Z,88.40
2018-04-20T06:42:00.136Z,87.30
2018-04-20T06:44:27.706Z,87.30
2018-04-20T06:46:55.246Z,87.40
2018-04-20T06:49:23.561Z,85.70
2018-04-20T06:51:51.097Z,85.60
2018-04-20T06:54:18.590Z,85.30
2018-04-20T06:56:46.098Z,84.10
2018-04-20T06:59:14.918Z,82.60
2018-04-20T07:01:42.403Z,82.40
2018-04-20T07:04:09.884Z,81.60
2018-04-20T07:06:37.396Z,82.00
2018-04-20T07:09:05.605Z,81.80
2018-04-20T07:11:33.085Z,81.40
2018-04-20T07:14:01.360Z,80.50
2018-04-20T07:16:29.609Z,81.90
2018-04-20T07:18:57.093Z,81.80
2018-04-20T07:21:24.621Z,77.90
2018-04-20T07:23:52.207Z,76.80
2018-04-20T07:26:20.480Z,73.70
2018-04-20T07:28:48.796Z,71.70
2018-04-20T07:31:16.287Z,71.70
2018-04-20T07:33:43.802Z,71.00
2018-04-20T07:36:11.368Z,67.80
2018-04-20T07:38:38.880Z,68.40
2018-04-20T07:41:06.373Z,69.70
2018-04-20T07:43:33.969Z,70.10
2018-04-20T07:46:01.505Z,70.60
2018-04-20T07:48:28.997Z,68.90
2018-04-20T07:50:56.487Z,66.90
2018-04-20T07:53:24.766Z,66.90
2018-04-20T07:55:52.244Z,66.80
2018-04-20T07:58:19.842Z,65.70
2018-04-20T08:00:47.327Z,66.80
2018-04-20T08:03:15.603Z,62.30
2018-04-20T08:05:43.950Z,62.90
2018-04-20T08:08:11.544Z,62.90
2018-04-20T08:10:39.848Z,63.40
2018-04-20T08:13:07.345Z,63.30
2018-04-20T08:15:34.858Z,61.40
2018-04-20T08:18:02.354Z,61.30
2018-04-20T08:20:29.841Z,61.30
2018-04-20T08:22:58.136Z,59.20
2018-04-20T08:25:25.647Z,59.10
2018-04-20T08:27:53.158Z,59.30
2018-04-20T08:30:20.706Z,59.80
2018-04-20T08:32:48.970Z,59.90
2018-04-20T08:35:17.219Z,59.60
2018-04-20T08:37:44.731Z,59.60
2018-04-20T08:40:12.239Z,57.90
2018-04-20T08:42:39.754Z,58.10
2018-04-20T08:45:07.242Z,60.30
2018-04-20T08:47:34.720Z,58.30
2018-04-20T08:50:02.242Z,57.40
2018-04-20T08:52:29.736Z,57.10
2018-04-20T08:54:57.216Z,56.60
2018-04-20T08:57:24.733Z,57.80
2018-04-20T08:59:52.213Z,56.80
2018-04-20T09:02:20.515Z,57.80
2018-04-20T09:04:47.998Z,57.40
2018-04-20T09:07:15.544Z,57.30
2018-04-20T09:09:43.072Z,57.10
2018-04-20T09:12:11.326Z,55.90
2018-04-20T09:14:38.835Z,55.90
2018-04-20T09:17:06.356Z,56.10
2018-04-20T09:19:34.627Z,56.90
2018-04-20T09:22:02.913Z,56.40
2018-04-20T09:24:31.283Z,55.90
2018-04-20T09:26:58.755Z,55.90
2018-04-20T09:29:27.023Z,54.60
2018-04-20T09:31:55.332Z,54.80
2018-04-20T09:34:22.821Z,54.80
2018-04-20T09:36:50.379Z,55.90
2018-04-20T09:39:17.915Z,55.10
2018-04-20T09:41:45.404Z,53.90
2018-04-20T09:44:12.903Z,54.30
2018-04-20T09:46:40.431Z,54.70
2018-04-20T09:49:07.931Z,54.30
2018-04-20T09:51:35.475Z,54.40
2018-04-20T09:54:02.980Z,54.50
2018-04-20T09:56:30.486Z,53.00
2018-04-20T09:58:58.770Z,53.40
2018-04-20T10:01:26.300Z,53.30
2018-04-20T10:03:56.362Z,52.70
2018-04-20T10:06:23.890Z,52.80
2018-04-20T10:08:52.180Z,52.90
2018-04-20T10:11:19.695Z,52.80
2018-04-20T10:13:47.205Z,52.80
2018-04-20T10:16:14.695Z,52.80
2018-04-20T10:18:42.184Z,51.00
2018-04-20T10:21:10.472Z,51.60
2018-04-20T10:23:37.979Z,51.50
2018-04-20T10:26:05.705Z,50.20
2018-04-20T10:28:33.227Z,51.00
2018-04-20T10:31:01.513Z,51.10
2018-04-20T10:33:29.798Z,51.20
2018-04-20T10:35:58.071Z,50.20
2018-04-20T10:38:26.369Z,49.60
2018-04-20T10:40:53.886Z,49.60
2018-04-20T10:43:21.400Z,49.00
2018-04-20T10:45:48.885Z,49.00
2018-04-20T10:48:16.401Z,49.30
2018-04-20T10:50:43.978Z,51.60
2018-04-20T10:53:11.488Z,49.10
2018-04-20T10:55:39.742Z,48.50
2018-04-20T10:58:08.056Z,49.20
2018-04-20T11:00:36.155Z,49.10
2018-04-20T11:03:03.709Z,50.00
2018-04-20T11:05:31.205Z,48.90
2018-04-20T11:07:58.744Z,48.40
2018-04-20T11:10:26.241Z,47.70
2018-04-20T11:12:54.508Z,46.30
2018-04-20T11:15:22.098Z,46.30
2018-04-20T11:17:49.591Z,47.60
2018-04-20T11:20:17.074Z,47.30
2018-04-20T11:22:44.593Z,45.40
2018-04-20T11:25:12.079Z,44.50
2018-04-20T11:27:39.628Z,45.50
2018-04-20T11:30:07.110Z,45.00
2018-04-20T11:32:34.590Z,43.90
2018-04-20T11:35:02.108Z,42.90
2018-04-20T11:37:29.602Z,42.50
2018-04-20T11:39:57.902Z,41.20
2018-04-20T11:42:25.377Z,41.10
2018-04-20T11:44:52.853Z,42.50
2018-04-20T11:47:20.521Z,41.90
2018-04-20T11:49:48.016Z,40.00
2018-04-20T11:52:15.509Z,40.30
2018-04-20T11:54:43.025Z,39.50
2018-04-20T11:57:11.365Z,39.20
2018-04-20T11:59:38.840Z,39.10
2018-04-20T12:02:07.132Z,34.20
2018-04-20T12:04:35.404Z,37.30
2018-04-20T12:07:03.654Z,37.90
2018-04-20T12:09:31.167Z,37.90
2018-04-20T12:11:58.649Z,37.00
2018-04-20T12:14:26.137Z,35.20
2018-04-20T12:16:53.670Z,33.90
2018-04-20T12:19:21.158Z,34.90
2018-04-20T12:21:48.672Z,36.60
2018-04-20T12:24:16.169Z,36.80
2018-04-20T12:26:43.661Z,35.80
2018-04-20T12:29:11.211Z,35.40
2018-04-20T12:31:38.698Z,34.30
2018-04-20T12:34:06.319Z,34.70
2018-04-20T12:36:34.608Z,34.90
2018-04-20T12:39:02.144Z,34.90
2018-04-20T12:41:30.594Z,32.80
2018-04-20T12:43:58.122Z,32.70
2018-04-20T12:46:25.669Z,32.40
2018-04-20T12:48:53.171Z,33.40
2018-04-20T12:51:20.777Z,32.20
2018-04-20T12:53:51.759Z,32.30
2018-04-20T12:56:19.242Z,31.40
2018-04-20T12:58:46.756Z,31.60
2018-04-20T13:01:14.237Z,30.40
2018-04-20T13:03:41.736Z,30.00
2018-04-20T13:06:10.239Z,30.10
2018-04-20T13:08:37.788Z,30.10
2018-04-20T13:11:05.287Z,28.90
2018-04-20T13:13:32.766Z,30.30
2018-04-20T13:16:00.343Z,29.60
2018-04-20T13:18:27.839Z,31.50
2018-04-20T13:20:55.321Z,30.00
2018-04-20T13:23:22.841Z,30.90
2018-04-20T13:25:50.336Z,30.90
2018-04-20T13:28:17.817Z,31.00
2018-04-20T13:30:45.336Z,27.90
2018-04-20T13:33:12.939Z,29.10
2018-04-20T13:35:41.227Z,26.80
2018-04-20T13:38:08.772Z,26.80
2018-04-20T13:40:37.040Z,27.80
2018-04-20T13:43:04.530Z,27.80
2018-04-20T13:45:32.060Z,29.10
2018-04-20T13:48:00.317Z,25.80
2018-04-20T13:50:27.839Z,25.70
2018-04-20T13:52:55.374Z,26.00
2018-04-20T13:55:22.857Z,25.60
2018-04-20T13:57:50.381Z,26.20
2018-04-20T14:00:18.663Z,25.90
2018-04-20T14:02:46.575Z,25.90
2018-04-20T14:05:14.078Z,28.40
2018-04-20T14:07:42.379Z,28.20
2018-04-20T14:10:09.875Z,28.20
2018-04-20T14:12:37.414Z,25.00
2018-04-20T14:15:04.961Z,26.10
2018-04-20T14:17:36.099Z,26.80
2018-04-20T14:20:03.602Z,25.40
2018-04-20T14:22:31.211Z,27.80
2018-04-20T14:24:58.707Z,25.70
2018-04-20T14:27:26.997Z,30.60
2018-04-20T14:29:55.301Z,29.90
2018-04-20T14:32:22.952Z,29.90
2018-04-20T14:34:50.686Z,28.20
2018-04-20T14:37:18.376Z,25.80
2018-04-20T14:39:46.216Z,29.10
2018-04-20T14:42:13.793Z,24.40
2018-04-20T14:44:41.384Z,25.40
2018-04-20T14:47:09.964Z,29.00
2018-04-20T14:49:37.517Z,28.90
2018-04-20T14:52:05.355Z,30.00
2018-04-20T14:54:32.968Z,29.20
2018-04-20T14:57:00.645Z,26.00
2018-04-20T14:59:28.323Z,28.00
2018-04-20T15:01:55.921Z,23.30
2018-04-20T15:04:23.655Z,25.30
2018-04-20T15:06:51.271Z,27.80
2018-04-20T15:09:18.849Z,23.30
2018-04-20T15:11:46.413Z,25.10
2018-04-20T15:14:13.978Z,27.20
2018-04-20T15:16:42.237Z,25.40
2018-04-20T15:19:09.844Z,23.00
2018-04-20T15:21:37.628Z,24.30
2018-04-20T15:24:05.227Z,23.50
2018-04-20T15:26:32.824Z,23.20
2018-04-20T15:29:01.294Z,23.20
2018-04-20T15:31:28.831Z,23.20
2018-04-20T15:33:56.371Z,21.40
2018-04-20T15:36:24.027Z,23.80
2018-04-20T15:38:51.666Z,23.90
2018-04-20T15:41:19.473Z,24.70
2018-04-20T15:43:47.010Z,24.80
2018-04-20T15:46:15.403Z,25.00
2018-04-20T15:48:43.005Z,24.90
2018-04-20T15:51:11.270Z,28.40
2018-04-20T15:53:38.885Z,28.40
2018-04-20T15:56:06.371Z,28.30
2018-04-20T15:58:33.896Z,30.00
2018-04-20T16:01:01.434Z,29.60
2018-04-20T16:03:28.917Z,29.90
2018-04-20T16:05:56.421Z,34.00
2018-04-20T16:08:24.788Z,33.10
2018-04-20T16:10:52.277Z,33.10
2018-04-20T16:13:20.597Z,33.30
2018-04-20T16:15:48.119Z,32.70
2018-04-20T16:18:15.611Z,34.30
2018-04-20T16:20:43.138Z,35.70
2018-04-20T16:23:10.695Z,34.60
2018-04-20T16:25:38.177Z,36.10
2018-04-20T16:28:05.697Z,35.30
2018-04-20T16:30:33.937Z,37.30
2018-04-20T16:33:01.488Z,37.20
2018-04-20T16:35:28.976Z,38.40
2018-04-20T16:38:01.046Z,39.40
2018-04-20T16:40:29.344Z,40.70
2018-04-20T16:42:56.852Z,40.10
2018-04-20T16:45:24.361Z,40.00
2018-04-20T16:47:51.925Z,42.20
2018-04-20T16:50:19.410Z,40.60
2018-04-20T16:52:46.900Z,40.50
2018-04-20T16:55:15.286Z,42.10
2018-04-20T16:57:42.787Z,41.70
2018-04-20T17:00:10.348Z,43.00
2018-04-20T17:02:37.874Z,41.90
2018-04-20T17:05:05.399Z,41.80
2018-04-20T17:07:32.913Z,41.20
2018-04-20T17:10:00.514Z,40.90
2018-04-20T17:12:28.098Z,40.50
2018-04-20T17:14:56.444Z,43.60
2018-04-20T17:17:24.811Z,44.90
2018-04-20T17:19:53.166Z,43.50
2018-04-20T17:22:20.751Z,43.20
2018-04-20T17:24:48.282Z,43.00
2018-04-20T17:27:15.904Z,45.40
2018-04-20T17:29:44.207Z,46.80
2018-04-20T17:32:11.699Z,46.80
2018-04-20T17:34:39.301Z,48.10
2018-04-20T17:37:07.597Z,48.30
2018-04-20T17:39:35.295Z,48.30
2018-04-20T17:42:02.825Z,48.40
2018-04-20T17:44:30.463Z,49.50
2018-04-20T17:46:58.799Z,49.70
2018-04-20T17:49:26.321Z,49.70
2018-04-20T17:51:53.825Z,49.80
2018-04-20T17:54:21.453Z,49.90
2018-04-20T17:56:48.978Z,50.50
2018-04-20T17:59:16.476Z,51.10
2018-04-20T18:01:44.629Z,51.10
2018-04-20T18:04:12.180Z,51.90
2018-04-20T18:06:39.667Z,52.20
2018-04-20T18:09:07.144Z,52.50
2018-04-20T18:11:34.731Z,52.70
2018-04-20T18:14:02.233Z,53.20
2018-04-20T18:16:29.878Z,53.60
2018-04-20T18:18:57.393Z,54.60
2018-04-20T18:21:24.928Z,53.90
2018-04-20T18:26:27.098Z,55.90
2018-04-20T18:28:54.598Z,55.90
2018-04-20T18:31:22.863Z,56.60
2018-04-20T18:33:50.479Z,56.60
2018-04-20T18:36:18.006Z,57.30
2018-04-20T18:38:45.519Z,57.00
2018-04-20T18:41:13.066Z,57.10
2018-04-20T18:43:40.610Z,57.20
2018-04-20T18:46:08.230Z,57.50
2018-04-20T18:48:35.921Z,57.50
2018-04-20T18:51:03.537Z,58.20
2018-04-20T18:53:31.027Z,58.20
2018-04-20T18:55:58.562Z,58.50
2018-04-20T18:58:26.913Z,58.20
2018-04-20T19:00:54.443Z,58.20
2018-04-20T19:03:21.946Z,58.40
2018-04-20T19:05:50.212Z,59.30
2018-04-20T19:08:17.745Z,59.00
2018-04-20T19:10:45.339Z,59.20
2018-04-20T19:13:13.663Z,59.60
2018-04-20T19:15:41.173Z,59.60
2018-04-20T19:18:09.450Z,60.20
2018-04-20T19:20:36.982Z,60.10
2018-04-20T19:23:04.458Z,60.20
2018-04-20T19:25:32.007Z,61.00
2018-04-20T19:28:00.032Z,61.70
2018-04-20T19:30:27.645Z,61.90
2018-04-20T19:32:55.151Z,61.70
2018-04-20T19:35:22.841Z,62.50
2018-04-20T19:37:50.341Z,61.90
2018-04-20T19:40:18.646Z,62.40
2018-04-20T19:42:46.163Z,62.40
2018-04-20T19:45:13.773Z,63.00
2018-04-20T19:47:41.294Z,62.60
2018-04-20T19:50:08.904Z,63.10
2018-04-20T19:52:36.442Z,64.20
2018-04-20T19:55:03.971Z,64.20
2018-04-20T19:57:31.495Z,64.90
2018-04-20T19:59:58.968Z,64.50
2018-04-20T20:02:26.462Z,64.50
2018-04-20T20:04:53.999Z,63.90
2018-04-20T20:07:22.301Z,64.80
2018-04-20T20:09:49.787Z,64.80
2018-04-20T20:12:17.283Z,65.20
2018-04-20T20:14:45.556Z,67.20
2018-04-20T20:17:14.761Z,66.50
2018-04-20T20:19:43.101Z,66.50
2018-04-20T20:22:10.633Z,66.30
2018-04-20T20:24:38.157Z,65.50
2018-04-20T20:27:05.906Z,65.60
2018-04-20T20:29:34.150Z,66.10
2018-04-20T20:32:01.672Z,66.00
2018-04-20T20:34:29.186Z,66.30
2018-04-20T20:36:56.733Z,66.40
2018-04-20T20:39:24.286Z,66.50
2018-04-20T20:41:52.577Z,67.10
2018-04-20T20:44:20.142Z,67.90
2018-04-20T20:46:47.768Z,67.30
2018-04-20T20:49:15.261Z,67.80
2018-04-20T20:51:43.566Z,67.20
2018-04-20T20:54:11.102Z,67.20
2018-04-20T20:56:39.373Z,68.10
2018-04-20T20:59:06.868Z,68.10
2018-04-20T21:01:34.376Z,67.60
2018-04-20T21:04:02.008Z,67.30
2018-04-20T21:06:29.584Z,68.30
2018-04-20T21:08:57.078Z,68.00
2018-04-20T21:11:25.371Z,68.60
2018-04-20T21:13:52.928Z,68.60
2018-04-20T21:16:20.465Z,68.40
2018-04-20T21:18:48.717Z,68.30
2018-04-20T21:21:16.250Z,68.20
2018-04-20T21:23:43.745Z,68.30
2018-04-20T21:26:11.233Z,67.80
2018-04-20T21:28:38.812Z,68.00
2018-04-20T21:31:06.347Z,67.80
2018-04-20T21:33:33.853Z,67.80
2018-04-20T21:36:01.328Z,68.80
2018-04-20T21:38:28.845Z,68.30
2018-04-20T21:40:56.358Z,68.80
2018-04-20T21:43:24.601Z,68.70
2018-04-20T21:45:52.114Z,68.60
2018-04-20T21:48:19.644Z,67.90
2018-04-20T21:50:47.118Z,68.70
2018-04-20T21:53:14.633Z,68.60
2018-04-20T21:55:42.145Z,67.80
2018-04-20T21:58:09.620Z,67.60
2018-04-20T22:00:37.137Z,67.60
2018-04-20T22:03:05.417Z,68.60
2018-04-20T22:05:33.719Z,68.90
2018-04-20T22:08:01.279Z,68.80
2018-04-20T22:10:28.841Z,68.10
2018-04-20T22:12:56.328Z,68.30
2018-04-20T22:15:23.841Z,68.40
2018-04-20T22:17:51.365Z,70.00
2018-04-20T22:20:19.754Z,70.80
2018-04-20T22:22:48.001Z,69.50
2018-04-20T22:25:15.523Z,69.50
2018-04-20T22:27:43.072Z,70.00
2018-04-20T22:30:10.588Z,68.80
2018-04-20T22:32:38.122Z,68.10
2018-04-20T22:35:07.123Z,68.40
2018-04-20T22:37:34.685Z,67.70
2018-04-20T22:40:02.222Z,67.40
2018-04-20T22:42:29.763Z,67.40
2018-04-20T22:44:57.271Z,67.20
2018-04-20T22:47:24.757Z,67.40
2018-04-20T22:49:52.311Z,67.80
2018-04-20T22:52:19.802Z,67.60
2018-04-20T22:54:47.288Z,68.50
2018-04-20T22:57:15.683Z,68.30
2018-04-20T22:59:43.189Z,68.20
2018-04-20T23:02:10.699Z,68.60
2018-04-20T23:04:38.319Z,69.30
2018-04-20T23:07:05.803Z,69.40
2018-04-20T23:09:33.344Z,69.20
2018-04-20T23:12:00.866Z,69.70
2018-04-20T23:14:28.349Z,68.40
2018-04-20T23:16:55.880Z,68.10
2018-04-20T23:19:23.373Z,67.80
2018-04-20T23:21:50.855Z,68.30
2018-04-20T23:24:18.524Z,67.50
2018-04-20T23:26:46.793Z,69.60
2018-04-20T23:29:14.917Z,69.60
2018-04-20T23:31:42.420Z,69.50
2018-04-20T23:34:09.919Z,70.30
2018-04-20T23:36:37.402Z,70.50
2018-04-20T23:39:05.795Z,68.70
2018-04-20T23:41:33.283Z,69.00
2018-04-20T23:44:00.771Z,69.20
2018-04-20T23:46:28.310Z,68.70
2018-04-20T23:48:56.563Z,69.80
2018-04-20T23:51:24.102Z,69.80
2018-04-20T23:53:51.616Z,69.30
2018-04-20T23:56:19.139Z,69.60
2018-04-20T23:58:46.658Z,69.70
